Edmund, Wisconsin
Current Conditions -  °F | °C
As of 7:15 AM on Thursday 23 Oct 2014 (Local Time) from KMRJ Reporting Station
Overcast Overcast  
Wind Chill: 39°   Ceiling: 4100
Heat Index: 45°   Visibility: 10mi
Dew Point: 36°   Wind: 10mph
Humidity: 71%   Direction: 150°SSE
Pressure: 30.12"   Gusts: NA
Location:  42.97°N, 90.26°W
Report Text: KMRJ 231215Z AUTO 15009KT 10SM OVC041 07/02 A3012 RMK AO2
Loading
Personal Weather Stations






























Interactive Weather Map
Tropical Storm Tracking
New forecast layout! Learn more

10-Day Weather Forecast

Advertisements
Track Severe Weather on mobile